sensor_id;sensor_type;location;lat;lon;timestamp;P1;durP1;ratioP1;P2;durP2;ratioP2
6825;SDS011;3451;52.476;13.316;2023-05-16T00:02:05;7.87;;;6.73;;
6825;SDS011;3451;52.476;13.316;2023-05-16T00:04:32;10.57;;;7.10;;
6825;SDS011;3451;52.476;13.316;2023-05-16T00:07:00;10.33;;;6.97;;
6825;SDS011;3451;52.476;13.316;2023-05-16T00:09:26;9.30;;;7.23;;
6825;SDS011;3451;52.476;13.316;2023-05-16T00:11:52;9.17;;;7.20;;
6825;SDS011;3451;52.476;13.316;2023-05-16T00:14:18;11.00;;;7.33;;
6825;SDS011;3451;52.476;13.316;2023-05-16T00:16:45;8.67;;;7.43;;
6825;SDS011;3451;52.476;13.316;2023-05-16T00:19:13;8.60;;;7.43;;
6825;SDS011;3451;52.476;13.316;2023-05-16T00:21:40;8.97;;;7.43;;
6825;SDS011;3451;52.476;13.316;2023-05-16T00:24:06;11.67;;;7.87;;
6825;SDS011;3451;52.476;13.316;2023-05-16T00:26:33;11.73;;;8.13;;
6825;SDS011;3451;52.476;13.316;2023-05-16T00:28:59;10.10;;;8.03;;
6825;SDS011;3451;52.476;13.316;2023-05-16T00:31:25;10.97;;;8.47;;
6825;SDS011;3451;52.476;13.316;2023-05-16T00:33:52;10.17;;;8.53;;
6825;SDS011;3451;52.476;13.316;2023-05-16T00:36:19;10.67;;;9.57;;
6825;SDS011;3451;52.476;13.316;2023-05-16T00:38:49;9.67;;;8.60;;
6825;SDS011;3451;52.476;13.316;2023-05-16T00:41:15;12.80;;;9.20;;
6825;SDS011;3451;52.476;13.316;2023-05-16T00:43:42;10.73;;;9.37;;
6825;SDS011;3451;52.476;13.316;2023-05-16T00:46:08;11.67;;;9.40;;
6825;SDS011;3451;52.476;13.316;2023-05-16T00:48:35;13.33;;;10.50;;
6825;SDS011;3451;52.476;13.316;2023-05-16T00:51:01;14.33;;;10.63;;
6825;SDS011;3451;52.476;13.316;2023-05-16T00:53:27;13.77;;;10.13;;
6825;SDS011;3451;52.476;13.316;2023-05-16T00:55:54;12.90;;;10.20;;
6825;SDS011;3451;52.476;13.316;2023-05-16T00:58:21;17.63;;;12.10;;
6825;SDS011;3451;52.476;13.316;2023-05-16T01:00:47;16.87;;;12.57;;
6825;SDS011;3451;52.476;13.316;2023-05-16T01:03:14;14.43;;;12.23;;
6825;SDS011;3451;52.476;13.316;2023-05-16T01:05:41;14.80;;;11.53;;
6825;SDS011;3451;52.476;13.316;2023-05-16T01:08:08;19.47;;;13.10;;
6825;SDS011;3451;52.476;13.316;2023-05-16T01:10:38;15.33;;;12.17;;
6825;SDS011;3451;52.476;13.316;2023-05-16T01:13:15;19.27;;;11.83;;
6825;SDS011;3451;52.476;13.316;2023-05-16T01:15:44;16.27;;;12.20;;
6825;SDS011;3451;52.476;13.316;2023-05-16T01:18:22;19.37;;;12.43;;
6825;SDS011;3451;52.476;13.316;2023-05-16T01:23:32;16.23;;;11.50;;
6825;SDS011;3451;52.476;13.316;2023-05-16T01:28:58;20.97;;;12.93;;
6825;SDS011;3451;52.476;13.316;2023-05-16T01:31:26;13.70;;;11.57;;
6825;SDS011;3451;52.476;13.316;2023-05-16T01:33:53;14.37;;;11.77;;
6825;SDS011;3451;52.476;13.316;2023-05-16T01:41:40;15.30;;;11.43;;
6825;SDS011;3451;52.476;13.316;2023-05-16T01:44:10;16.57;;;12.53;;
6825;SDS011;3451;52.476;13.316;2023-05-16T01:46:41;15.63;;;10.80;;
6825;SDS011;3451;52.476;13.316;2023-05-16T01:49:14;15.00;;;11.53;;
6825;SDS011;3451;52.476;13.316;2023-05-16T01:51:47;13.93;;;11.70;;
6825;SDS011;3451;52.476;13.316;2023-05-16T01:54:14;16.53;;;11.43;;
6825;SDS011;3451;52.476;13.316;2023-05-16T01:56:45;15.57;;;10.53;;
6825;SDS011;3451;52.476;13.316;2023-05-16T01:59:16;16.33;;;11.43;;
6825;SDS011;3451;52.476;13.316;2023-05-16T02:01:43;16.33;;;10.93;;
6825;SDS011;3451;52.476;13.316;2023-05-16T02:04:09;14.67;;;11.10;;
6825;SDS011;3451;52.476;13.316;2023-05-16T02:06:37;15.00;;;11.27;;
6825;SDS011;3451;52.476;13.316;2023-05-16T02:09:03;12.80;;;10.20;;
6825;SDS011;3451;52.476;13.316;2023-05-16T02:11:29;20.63;;;11.30;;
6825;SDS011;3451;52.476;13.316;2023-05-16T02:13:56;17.37;;;11.17;;
6825;SDS011;3451;52.476;13.316;2023-05-16T02:16:22;14.43;;;10.50;;
6825;SDS011;3451;52.476;13.316;2023-05-16T02:18:48;15.60;;;10.67;;
6825;SDS011;3451;52.476;13.316;2023-05-16T02:21:15;14.07;;;10.53;;
6825;SDS011;3451;52.476;13.316;2023-05-16T02:23:41;16.27;;;11.07;;
6825;SDS011;3451;52.476;13.316;2023-05-16T02:26:07;16.90;;;11.13;;
6825;SDS011;3451;52.476;13.316;2023-05-16T02:28:34;20.40;;;11.30;;
6825;SDS011;3451;52.476;13.316;2023-05-16T02:31:00;18.23;;;11.00;;
6825;SDS011;3451;52.476;13.316;2023-05-16T02:33:27;14.37;;;11.20;;
6825;SDS011;3451;52.476;13.316;2023-05-16T02:35:53;16.70;;;11.37;;
6825;SDS011;3451;52.476;13.316;2023-05-16T02:38:20;13.90;;;10.73;;
6825;SDS011;3451;52.476;13.316;2023-05-16T02:40:46;14.47;;;11.73;;
6825;SDS011;3451;52.476;13.316;2023-05-16T02:43:13;16.10;;;11.73;;
6825;SDS011;3451;52.476;13.316;2023-05-16T02:45:39;16.83;;;11.30;;
6825;SDS011;3451;52.476;13.316;2023-05-16T02:48:06;18.40;;;12.20;;
6825;SDS011;3451;52.476;13.316;2023-05-16T02:50:32;15.37;;;11.50;;
6825;SDS011;3451;52.476;13.316;2023-05-16T02:52:59;16.97;;;11.73;;
6825;SDS011;3451;52.476;13.316;2023-05-16T02:55:27;15.80;;;11.17;;
6825;SDS011;3451;52.476;13.316;2023-05-16T02:57:54;14.53;;;10.70;;
6825;SDS011;3451;52.476;13.316;2023-05-16T03:00:20;14.53;;;11.37;;
6825;SDS011;3451;52.476;13.316;2023-05-16T03:02:46;17.83;;;12.80;;
6825;SDS011;3451;52.476;13.316;2023-05-16T03:05:13;13.97;;;11.53;;
6825;SDS011;3451;52.476;13.316;2023-05-16T03:07:39;18.30;;;11.60;;
6825;SDS011;3451;52.476;13.316;2023-05-16T03:10:06;15.90;;;12.53;;
6825;SDS011;3451;52.476;13.316;2023-05-16T03:12:32;18.13;;;11.83;;
6825;SDS011;3451;52.476;13.316;2023-05-16T03:14:58;15.00;;;11.63;;
6825;SDS011;3451;52.476;13.316;2023-05-16T03:17:24;15.43;;;11.67;;
6825;SDS011;3451;52.476;13.316;2023-05-16T03:19:52;15.80;;;11.07;;
6825;SDS011;3451;52.476;13.316;2023-05-16T03:22:18;19.03;;;12.40;;
6825;SDS011;3451;52.476;13.316;2023-05-16T03:24:45;16.23;;;12.07;;
6825;SDS011;3451;52.476;13.316;2023-05-16T03:27:12;15.17;;;12.93;;
6825;SDS011;3451;52.476;13.316;2023-05-16T03:29:38;15.70;;;12.10;;
6825;SDS011;3451;52.476;13.316;2023-05-16T03:32:04;19.00;;;12.60;;
6825;SDS011;3451;52.476;13.316;2023-05-16T03:34:31;18.37;;;12.93;;
6825;SDS011;3451;52.476;13.316;2023-05-16T03:36:57;15.57;;;12.60;;
6825;SDS011;3451;52.476;13.316;2023-05-16T03:39:24;16.57;;;13.20;;
6825;SDS011;3451;52.476;13.316;2023-05-16T03:41:50;18.60;;;13.07;;
6825;SDS011;3451;52.476;13.316;2023-05-16T03:44:17;23.13;;;13.73;;
6825;SDS011;3451;52.476;13.316;2023-05-16T03:46:43;16.47;;;13.70;;
6825;SDS011;3451;52.476;13.316;2023-05-16T03:49:10;17.27;;;13.00;;
6825;SDS011;3451;52.476;13.316;2023-05-16T03:51:36;18.47;;;13.67;;
6825;SDS011;3451;52.476;13.316;2023-05-16T03:54:02;20.83;;;13.37;;
6825;SDS011;3451;52.476;13.316;2023-05-16T03:56:28;19.03;;;14.43;;
6825;SDS011;3451;52.476;13.316;2023-05-16T03:58:55;17.47;;;14.13;;
6825;SDS011;3451;52.476;13.316;2023-05-16T04:01:21;23.70;;;13.70;;
6825;SDS011;3451;52.476;13.316;2023-05-16T04:03:47;24.93;;;14.30;;
6825;SDS011;3451;52.476;13.316;2023-05-16T04:06:14;18.77;;;13.67;;
6825;SDS011;3451;52.476;13.316;2023-05-16T04:08:40;22.17;;;14.00;;
6825;SDS011;3451;52.476;13.316;2023-05-16T04:11:10;18.43;;;13.00;;
6825;SDS011;3451;52.476;13.316;2023-05-16T04:13:36;20.47;;;14.23;;
6825;SDS011;3451;52.476;13.316;2023-05-16T04:16:03;19.53;;;13.57;;
6825;SDS011;3451;52.476;13.316;2023-05-16T04:18:29;20.50;;;13.43;;
6825;SDS011;3451;52.476;13.316;2023-05-16T04:20:56;18.37;;;13.47;;
6825;SDS011;3451;52.476;13.316;2023-05-16T04:23:22;19.30;;;12.90;;
6825;SDS011;3451;52.476;13.316;2023-05-16T04:25:48;17.80;;;13.17;;
6825;SDS011;3451;52.476;13.316;2023-05-16T04:28:15;20.17;;;13.63;;
6825;SDS011;3451;52.476;13.316;2023-05-16T04:30:42;18.17;;;13.30;;
6825;SDS011;3451;52.476;13.316;2023-05-16T04:33:08;17.87;;;13.40;;
6825;SDS011;3451;52.476;13.316;2023-05-16T04:35:34;18.37;;;13.33;;
6825;SDS011;3451;52.476;13.316;2023-05-16T04:38:02;17.30;;;12.67;;
6825;SDS011;3451;52.476;13.316;2023-05-16T04:40:29;19.13;;;13.07;;
6825;SDS011;3451;52.476;13.316;2023-05-16T04:42:56;16.77;;;13.00;;
6825;SDS011;3451;52.476;13.316;2023-05-16T04:45:22;17.03;;;13.20;;
6825;SDS011;3451;52.476;13.316;2023-05-16T04:47:48;20.07;;;13.63;;
6825;SDS011;3451;52.476;13.316;2023-05-16T04:50:15;20.70;;;14.07;;
6825;SDS011;3451;52.476;13.316;2023-05-16T04:52:41;21.03;;;13.27;;
6825;SDS011;3451;52.476;13.316;2023-05-16T04:55:08;23.70;;;14.50;;
6825;SDS011;3451;52.476;13.316;2023-05-16T04:57:34;20.13;;;13.83;;
6825;SDS011;3451;52.476;13.316;2023-05-16T05:00:01;23.20;;;13.67;;
6825;SDS011;3451;52.476;13.316;2023-05-16T05:02:27;18.73;;;13.83;;
6825;SDS011;3451;52.476;13.316;2023-05-16T05:04:53;18.77;;;13.40;;
6825;SDS011;3451;52.476;13.316;2023-05-16T05:07:20;22.27;;;14.10;;
6825;SDS011;3451;52.476;13.316;2023-05-16T05:09:46;18.60;;;13.73;;
6825;SDS011;3451;52.476;13.316;2023-05-16T05:12:12;21.60;;;14.03;;
6825;SDS011;3451;52.476;13.316;2023-05-16T05:14:39;17.40;;;13.23;;
6825;SDS011;3451;52.476;13.316;2023-05-16T05:17:05;19.83;;;13.93;;
6825;SDS011;3451;52.476;13.316;2023-05-16T05:19:31;18.77;;;14.10;;
6825;SDS011;3451;52.476;13.316;2023-05-16T05:21:58;19.40;;;13.87;;
6825;SDS011;3451;52.476;13.316;2023-05-16T05:24:25;18.23;;;14.27;;
6825;SDS011;3451;52.476;13.316;2023-05-16T05:26:51;21.30;;;13.90;;
6825;SDS011;3451;52.476;13.316;2023-05-16T05:29:17;22.50;;;14.40;;
6825;SDS011;3451;52.476;13.316;2023-05-16T05:31:43;18.77;;;13.57;;
6825;SDS011;3451;52.476;13.316;2023-05-16T05:34:10;18.17;;;13.40;;
6825;SDS011;3451;52.476;13.316;2023-05-16T05:36:36;20.40;;;13.70;;
6825;SDS011;3451;52.476;13.316;2023-05-16T05:39:02;21.03;;;13.87;;
6825;SDS011;3451;52.476;13.316;2023-05-16T05:41:29;18.77;;;13.23;;
6825;SDS011;3451;52.476;13.316;2023-05-16T05:43:55;17.53;;;13.83;;
6825;SDS011;3451;52.476;13.316;2023-05-16T05:46:22;19.43;;;13.50;;
6825;SDS011;3451;52.476;13.316;2023-05-16T05:48:49;23.20;;;12.43;;
6825;SDS011;3451;52.476;13.316;2023-05-16T05:51:15;18.07;;;12.03;;
6825;SDS011;3451;52.476;13.316;2023-05-16T05:53:42;18.67;;;11.43;;
6825;SDS011;3451;52.476;13.316;2023-05-16T05:56:09;17.83;;;12.00;;
6825;SDS011;3451;52.476;13.316;2023-05-16T05:58:35;14.93;;;10.67;;
6825;SDS011;3451;52.476;13.316;2023-05-16T06:01:01;13.90;;;10.53;;
6825;SDS011;3451;52.476;13.316;2023-05-16T06:03:28;13.30;;;10.90;;
6825;SDS011;3451;52.476;13.316;2023-05-16T06:05:54;17.40;;;11.67;;
6825;SDS011;3451;52.476;13.316;2023-05-16T06:08:21;18.10;;;11.53;;
6825;SDS011;3451;52.476;13.316;2023-05-16T06:10:47;14.10;;;11.03;;
6825;SDS011;3451;52.476;13.316;2023-05-16T06:13:13;15.50;;;11.27;;
6825;SDS011;3451;52.476;13.316;2023-05-16T06:15:40;13.97;;;10.63;;
6825;SDS011;3451;52.476;13.316;2023-05-16T06:18:06;16.53;;;11.50;;
6825;SDS011;3451;52.476;13.316;2023-05-16T06:20:33;16.73;;;10.70;;
6825;SDS011;3451;52.476;13.316;2023-05-16T06:22:59;13.07;;;11.10;;
6825;SDS011;3451;52.476;13.316;2023-05-16T06:25:26;13.83;;;10.70;;
6825;SDS011;3451;52.476;13.316;2023-05-16T06:27:52;14.30;;;10.07;;
6825;SDS011;3451;52.476;13.316;2023-05-16T06:30:19;15.00;;;9.70;;
6825;SDS011;3451;52.476;13.316;2023-05-16T06:32:45;12.03;;;9.40;;
6825;SDS011;3451;52.476;13.316;2023-05-16T06:35:11;13.00;;;9.53;;
6825;SDS011;3451;52.476;13.316;2023-05-16T06:37:38;14.97;;;9.30;;
6825;SDS011;3451;52.476;13.316;2023-05-16T06:40:07;12.90;;;8.90;;
6825;SDS011;3451;52.476;13.316;2023-05-16T06:42:34;10.50;;;8.27;;
6825;SDS011;3451;52.476;13.316;2023-05-16T06:45:00;12.00;;;8.23;;
6825;SDS011;3451;52.476;13.316;2023-05-16T06:47:26;11.73;;;8.33;;
6825;SDS011;3451;52.476;13.316;2023-05-16T06:49:53;11.43;;;7.93;;
6825;SDS011;3451;52.476;13.316;2023-05-16T06:52:19;10.67;;;8.13;;
6825;SDS011;3451;52.476;13.316;2023-05-16T06:54:46;15.43;;;7.53;;
6825;SDS011;3451;52.476;13.316;2023-05-16T06:57:12;10.33;;;6.80;;
6825;SDS011;3451;52.476;13.316;2023-05-16T06:59:38;13.10;;;7.47;;
6825;SDS011;3451;52.476;13.316;2023-05-16T07:02:05;9.00;;;7.23;;
6825;SDS011;3451;52.476;13.316;2023-05-16T07:04:31;11.50;;;7.00;;
6825;SDS011;3451;52.476;13.316;2023-05-16T07:06:59;9.77;;;6.87;;
6825;SDS011;3451;52.476;13.316;2023-05-16T07:09:25;11.70;;;6.63;;
6825;SDS011;3451;52.476;13.316;2023-05-16T07:11:52;8.50;;;6.50;;
6825;SDS011;3451;52.476;13.316;2023-05-16T07:14:18;12.80;;;6.50;;
6825;SDS011;3451;52.476;13.316;2023-05-16T07:16:44;9.23;;;6.03;;
6825;SDS011;3451;52.476;13.316;2023-05-16T07:19:11;7.27;;;5.70;;
6825;SDS011;3451;52.476;13.316;2023-05-16T07:21:37;10.73;;;6.17;;
6825;SDS011;3451;52.476;13.316;2023-05-16T07:24:04;13.80;;;5.53;;
6825;SDS011;3451;52.476;13.316;2023-05-16T07:26:31;11.10;;;5.60;;
6825;SDS011;3451;52.476;13.316;2023-05-16T07:28:57;11.73;;;5.40;;
6825;SDS011;3451;52.476;13.316;2023-05-16T07:31:24;8.87;;;5.20;;
6825;SDS011;3451;52.476;13.316;2023-05-16T07:33:50;8.30;;;5.70;;
6825;SDS011;3451;52.476;13.316;2023-05-16T07:36:16;8.97;;;5.07;;
6825;SDS011;3451;52.476;13.316;2023-05-16T07:38:43;8.03;;;5.07;;
6825;SDS011;3451;52.476;13.316;2023-05-16T07:41:10;6.83;;;4.27;;
6825;SDS011;3451;52.476;13.316;2023-05-16T07:43:36;8.83;;;4.60;;
6825;SDS011;3451;52.476;13.316;2023-05-16T07:46:02;6.53;;;4.27;;
6825;SDS011;3451;52.476;13.316;2023-05-16T07:48:32;4.73;;;3.90;;
6825;SDS011;3451;52.476;13.316;2023-05-16T07:50:58;8.00;;;4.10;;
6825;SDS011;3451;52.476;13.316;2023-05-16T07:53:24;7.10;;;4.40;;
6825;SDS011;3451;52.476;13.316;2023-05-16T07:55:51;6.43;;;4.20;;
6825;SDS011;3451;52.476;13.316;2023-05-16T07:58:17;7.53;;;4.33;;
6825;SDS011;3451;52.476;13.316;2023-05-16T08:00:44;8.17;;;4.50;;
6825;SDS011;3451;52.476;13.316;2023-05-16T08:03:10;8.10;;;4.00;;
6825;SDS011;3451;52.476;13.316;2023-05-16T08:05:37;9.37;;;3.97;;
6825;SDS011;3451;52.476;13.316;2023-05-16T08:08:03;7.83;;;4.03;;
6825;SDS011;3451;52.476;13.316;2023-05-16T08:10:29;4.83;;;3.77;;
6825;SDS011;3451;52.476;13.316;2023-05-16T08:12:56;7.73;;;3.63;;
6825;SDS011;3451;52.476;13.316;2023-05-16T08:15:22;4.43;;;3.43;;
6825;SDS011;3451;52.476;13.316;2023-05-16T08:17:49;8.53;;;3.63;;
6825;SDS011;3451;52.476;13.316;2023-05-16T08:20:16;5.00;;;3.67;;
6825;SDS011;3451;52.476;13.316;2023-05-16T08:22:42;8.17;;;3.77;;
6825;SDS011;3451;52.476;13.316;2023-05-16T08:25:08;8.40;;;3.73;;
6825;SDS011;3451;52.476;13.316;2023-05-16T08:27:35;7.67;;;3.17;;
6825;SDS011;3451;52.476;13.316;2023-05-16T08:30:01;6.13;;;3.63;;
6825;SDS011;3451;52.476;13.316;2023-05-16T08:32:28;6.93;;;4.10;;
6825;SDS011;3451;52.476;13.316;2023-05-16T08:34:54;6.20;;;3.50;;
6825;SDS011;3451;52.476;13.316;2023-05-16T08:37:20;5.23;;;3.47;;
6825;SDS011;3451;52.476;13.316;2023-05-16T08:39:47;8.07;;;3.80;;
6825;SDS011;3451;52.476;13.316;2023-05-16T08:42:13;5.63;;;3.43;;
6825;SDS011;3451;52.476;13.316;2023-05-16T08:44:40;6.03;;;3.03;;
6825;SDS011;3451;52.476;13.316;2023-05-16T08:47:10;8.20;;;3.30;;
6825;SDS011;3451;52.476;13.316;2023-05-16T08:49:38;6.60;;;3.17;;
6825;SDS011;3451;52.476;13.316;2023-05-16T08:52:05;8.00;;;3.07;;
6825;SDS011;3451;52.476;13.316;2023-05-16T08:54:33;3.00;;;2.63;;
6825;SDS011;3451;52.476;13.316;2023-05-16T08:56:59;3.97;;;2.67;;
6825;SDS011;3451;52.476;13.316;2023-05-16T08:59:26;6.50;;;3.03;;
6825;SDS011;3451;52.476;13.316;2023-05-16T09:01:52;6.40;;;2.77;;
6825;SDS011;3451;52.476;13.316;2023-05-16T09:04:19;3.93;;;2.70;;
6825;SDS011;3451;52.476;13.316;2023-05-16T09:06:46;5.17;;;2.57;;
6825;SDS011;3451;52.476;13.316;2023-05-16T09:09:13;5.30;;;2.50;;
6825;SDS011;3451;52.476;13.316;2023-05-16T09:11:39;7.07;;;2.60;;
6825;SDS011;3451;52.476;13.316;2023-05-16T09:14:07;8.67;;;2.67;;
6825;SDS011;3451;52.476;13.316;2023-05-16T09:16:33;7.20;;;2.40;;
6825;SDS011;3451;52.476;13.316;2023-05-16T09:19:00;6.77;;;2.47;;
6825;SDS011;3451;52.476;13.316;2023-05-16T09:21:35;5.07;;;2.37;;
6825;SDS011;3451;52.476;13.316;2023-05-16T09:24:02;6.17;;;2.67;;
6825;SDS011;3451;52.476;13.316;2023-05-16T09:26:31;8.80;;;2.83;;
6825;SDS011;3451;52.476;13.316;2023-05-16T09:28:57;7.90;;;2.90;;
6825;SDS011;3451;52.476;13.316;2023-05-16T09:31:25;6.73;;;2.50;;
6825;SDS011;3451;52.476;13.316;2023-05-16T09:33:52;4.77;;;2.50;;
6825;SDS011;3451;52.476;13.316;2023-05-16T09:36:19;6.63;;;2.53;;
6825;SDS011;3451;52.476;13.316;2023-05-16T09:38:45;6.20;;;2.70;;
6825;SDS011;3451;52.476;13.316;2023-05-16T09:41:12;9.37;;;2.53;;
6825;SDS011;3451;52.476;13.316;2023-05-16T09:43:39;5.23;;;2.07;;
6825;SDS011;3451;52.476;13.316;2023-05-16T09:46:07;6.23;;;2.47;;
6825;SDS011;3451;52.476;13.316;2023-05-16T09:48:33;4.17;;;2.10;;
6825;SDS011;3451;52.476;13.316;2023-05-16T09:51:00;5.37;;;2.13;;
6825;SDS011;3451;52.476;13.316;2023-05-16T09:53:30;7.47;;;2.73;;
6825;SDS011;3451;52.476;13.316;2023-05-16T09:56:01;7.93;;;2.53;;
6825;SDS011;3451;52.476;13.316;2023-05-16T09:58:28;6.70;;;2.50;;
6825;SDS011;3451;52.476;13.316;2023-05-16T10:00:55;4.90;;;2.67;;
6825;SDS011;3451;52.476;13.316;2023-05-16T10:03:22;5.37;;;2.43;;
6825;SDS011;3451;52.476;13.316;2023-05-16T10:05:49;6.60;;;2.57;;
6825;SDS011;3451;52.476;13.316;2023-05-16T10:08:21;9.23;;;2.63;;
6825;SDS011;3451;52.476;13.316;2023-05-16T10:10:52;5.13;;;2.30;;
6825;SDS011;3451;52.476;13.316;2023-05-16T10:13:19;6.27;;;2.43;;
6825;SDS011;3451;52.476;13.316;2023-05-16T10:15:47;8.10;;;2.67;;
6825;SDS011;3451;52.476;13.316;2023-05-16T10:18:13;8.73;;;3.50;;
6825;SDS011;3451;52.476;13.316;2023-05-16T10:20:42;6.80;;;2.53;;
6825;SDS011;3451;52.476;13.316;2023-05-16T10:23:10;6.13;;;2.63;;
6825;SDS011;3451;52.476;13.316;2023-05-16T10:25:39;8.50;;;2.40;;
6825;SDS011;3451;52.476;13.316;2023-05-16T10:28:07;8.27;;;2.67;;
6825;SDS011;3451;52.476;13.316;2023-05-16T10:30:34;5.30;;;2.70;;
6825;SDS011;3451;52.476;13.316;2023-05-16T10:33:01;5.83;;;2.40;;
6825;SDS011;3451;52.476;13.316;2023-05-16T10:35:30;5.60;;;2.50;;
6825;SDS011;3451;52.476;13.316;2023-05-16T10:37:56;8.33;;;2.80;;
6825;SDS011;3451;52.476;13.316;2023-05-16T10:40:23;6.57;;;2.40;;
6825;SDS011;3451;52.476;13.316;2023-05-16T10:42:56;4.87;;;2.53;;
6825;SDS011;3451;52.476;13.316;2023-05-16T10:45:22;11.67;;;2.43;;
6825;SDS011;3451;52.476;13.316;2023-05-16T10:47:52;5.80;;;2.80;;
6825;SDS011;3451;52.476;13.316;2023-05-16T10:50:38;7.57;;;2.70;;
6825;SDS011;3451;52.476;13.316;2023-05-16T10:53:18;7.27;;;2.73;;
6825;SDS011;3451;52.476;13.316;2023-05-16T10:56:06;6.73;;;2.50;;
6825;SDS011;3451;52.476;13.316;2023-05-16T11:06:25;10.77;;;2.90;;
6825;SDS011;3451;52.476;13.316;2023-05-16T11:11:41;11.13;;;2.53;;
6825;SDS011;3451;52.476;13.316;2023-05-16T11:14:24;10.37;;;2.67;;
6825;SDS011;3451;52.476;13.316;2023-05-16T11:16:59;8.10;;;2.33;;
6825;SDS011;3451;52.476;13.316;2023-05-16T11:24:30;13.03;;;2.47;;
6825;SDS011;3451;52.476;13.316;2023-05-16T11:27:00;8.93;;;2.13;;
6825;SDS011;3451;52.476;13.316;2023-05-16T11:29:27;13.40;;;2.53;;
6825;SDS011;3451;52.476;13.316;2023-05-16T11:31:54;9.93;;;2.53;;
6825;SDS011;3451;52.476;13.316;2023-05-16T11:34:20;10.00;;;2.50;;
6825;SDS011;3451;52.476;13.316;2023-05-16T11:36:47;12.00;;;2.67;;
6825;SDS011;3451;52.476;13.316;2023-05-16T11:39:14;16.20;;;3.10;;
6825;SDS011;3451;52.476;13.316;2023-05-16T11:41:40;11.27;;;2.50;;
6825;SDS011;3451;52.476;13.316;2023-05-16T11:44:06;5.87;;;2.13;;
6825;SDS011;3451;52.476;13.316;2023-05-16T11:46:38;12.73;;;2.80;;
6825;SDS011;3451;52.476;13.316;2023-05-16T11:49:04;7.90;;;2.00;;
6825;SDS011;3451;52.476;13.316;2023-05-16T11:51:31;11.30;;;2.77;;
6825;SDS011;3451;52.476;13.316;2023-05-16T11:53:57;8.13;;;2.53;;
6825;SDS011;3451;52.476;13.316;2023-05-16T11:56:24;8.50;;;2.20;;
6825;SDS011;3451;52.476;13.316;2023-05-16T11:58:51;10.90;;;2.70;;
6825;SDS011;3451;52.476;13.316;2023-05-16T12:01:17;10.73;;;2.37;;
6825;SDS011;3451;52.476;13.316;2023-05-16T12:03:44;6.57;;;2.13;;
6825;SDS011;3451;52.476;13.316;2023-05-16T12:06:19;9.80;;;1.90;;
6825;SDS011;3451;52.476;13.316;2023-05-16T12:08:49;9.67;;;2.70;;
6825;SDS011;3451;52.476;13.316;2023-05-16T12:11:16;7.30;;;2.30;;
6825;SDS011;3451;52.476;13.316;2023-05-16T12:13:43;4.90;;;1.93;;
6825;SDS011;3451;52.476;13.316;2023-05-16T12:16:10;8.07;;;2.17;;
6825;SDS011;3451;52.476;13.316;2023-05-16T12:18:37;6.70;;;1.73;;
6825;SDS011;3451;52.476;13.316;2023-05-16T12:21:08;7.53;;;2.20;;
6825;SDS011;3451;52.476;13.316;2023-05-16T12:23:34;9.83;;;2.13;;
6825;SDS011;3451;52.476;13.316;2023-05-16T12:26:01;7.10;;;2.07;;
6825;SDS011;3451;52.476;13.316;2023-05-16T12:28:32;10.20;;;2.30;;
6825;SDS011;3451;52.476;13.316;2023-05-16T12:31:10;9.73;;;2.20;;
6825;SDS011;3451;52.476;13.316;2023-05-16T12:33:56;7.23;;;2.17;;
6825;SDS011;3451;52.476;13.316;2023-05-16T12:36:24;8.53;;;2.37;;
6825;SDS011;3451;52.476;13.316;2023-05-16T12:38:51;7.60;;;2.30;;
6825;SDS011;3451;52.476;13.316;2023-05-16T12:41:18;6.67;;;1.90;;
6825;SDS011;3451;52.476;13.316;2023-05-16T12:43:45;10.43;;;2.37;;
6825;SDS011;3451;52.476;13.316;2023-05-16T12:46:11;10.60;;;2.10;;
6825;SDS011;3451;52.476;13.316;2023-05-16T12:48:38;9.27;;;2.07;;
6825;SDS011;3451;52.476;13.316;2023-05-16T12:51:10;15.97;;;2.60;;
6825;SDS011;3451;52.476;13.316;2023-05-16T12:56:14;8.43;;;1.80;;
6825;SDS011;3451;52.476;13.316;2023-05-16T12:58:41;9.30;;;2.50;;
6825;SDS011;3451;52.476;13.316;2023-05-16T13:01:08;13.50;;;2.20;;
6825;SDS011;3451;52.476;13.316;2023-05-16T13:03:34;6.30;;;1.90;;
6825;SDS011;3451;52.476;13.316;2023-05-16T13:06:01;10.57;;;2.13;;
6825;SDS011;3451;52.476;13.316;2023-05-16T13:08:29;9.43;;;2.00;;
6825;SDS011;3451;52.476;13.316;2023-05-16T13:10:55;9.07;;;2.37;;
6825;SDS011;3451;52.476;13.316;2023-05-16T13:13:22;6.70;;;1.93;;
6825;SDS011;3451;52.476;13.316;2023-05-16T13:16:00;7.50;;;2.60;;
6825;SDS011;3451;52.476;13.316;2023-05-16T13:18:27;8.77;;;1.80;;
6825;SDS011;3451;52.476;13.316;2023-05-16T13:20:53;6.57;;;1.80;;
6825;SDS011;3451;52.476;13.316;2023-05-16T13:23:19;7.73;;;1.80;;
6825;SDS011;3451;52.476;13.316;2023-05-16T13:25:46;7.97;;;1.40;;
6825;SDS011;3451;52.476;13.316;2023-05-16T13:28:14;10.50;;;2.30;;
6825;SDS011;3451;52.476;13.316;2023-05-16T13:30:41;12.03;;;2.20;;
6825;SDS011;3451;52.476;13.316;2023-05-16T13:33:07;11.30;;;1.80;;
6825;SDS011;3451;52.476;13.316;2023-05-16T13:35:33;9.17;;;1.97;;
6825;SDS011;3451;52.476;13.316;2023-05-16T13:38:00;8.27;;;1.90;;
6825;SDS011;3451;52.476;13.316;2023-05-16T13:40:26;7.97;;;2.10;;
6825;SDS011;3451;52.476;13.316;2023-05-16T13:42:54;8.73;;;1.80;;
6825;SDS011;3451;52.476;13.316;2023-05-16T13:45:20;8.93;;;1.80;;
6825;SDS011;3451;52.476;13.316;2023-05-16T13:47:47;11.37;;;2.80;;
6825;SDS011;3451;52.476;13.316;2023-05-16T13:50:13;9.17;;;1.73;;
6825;SDS011;3451;52.476;13.316;2023-05-16T13:52:40;9.17;;;1.90;;
6825;SDS011;3451;52.476;13.316;2023-05-16T13:55:06;12.40;;;2.17;;
6825;SDS011;3451;52.476;13.316;2023-05-16T13:57:33;11.33;;;2.80;;
6825;SDS011;3451;52.476;13.316;2023-05-16T14:00:00;6.93;;;1.87;;
6825;SDS011;3451;52.476;13.316;2023-05-16T14:02:46;11.23;;;2.23;;
6825;SDS011;3451;52.476;13.316;2023-05-16T14:05:12;11.50;;;2.07;;
6825;SDS011;3451;52.476;13.316;2023-05-16T14:07:39;8.93;;;2.07;;
6825;SDS011;3451;52.476;13.316;2023-05-16T14:10:05;10.13;;;1.63;;
6825;SDS011;3451;52.476;13.316;2023-05-16T14:12:32;12.13;;;1.80;;
6825;SDS011;3451;52.476;13.316;2023-05-16T14:14:58;4.70;;;1.37;;
6825;SDS011;3451;52.476;13.316;2023-05-16T14:17:25;8.03;;;1.93;;
6825;SDS011;3451;52.476;13.316;2023-05-16T14:19:52;26.47;;;2.83;;
6825;SDS011;3451;52.476;13.316;2023-05-16T14:22:18;7.93;;;1.50;;
6825;SDS011;3451;52.476;13.316;2023-05-16T14:24:45;7.73;;;1.70;;
6825;SDS011;3451;52.476;13.316;2023-05-16T14:27:11;8.83;;;1.50;;
6825;SDS011;3451;52.476;13.316;2023-05-16T14:29:40;8.50;;;1.47;;
6825;SDS011;3451;52.476;13.316;2023-05-16T14:32:06;8.17;;;1.50;;
6825;SDS011;3451;52.476;13.316;2023-05-16T14:34:33;5.40;;;1.40;;
6825;SDS011;3451;52.476;13.316;2023-05-16T14:36:59;8.27;;;1.87;;
6825;SDS011;3451;52.476;13.316;2023-05-16T14:39:26;7.20;;;1.67;;
6825;SDS011;3451;52.476;13.316;2023-05-16T14:41:52;6.73;;;1.47;;
6825;SDS011;3451;52.476;13.316;2023-05-16T14:44:18;9.27;;;1.70;;
6825;SDS011;3451;52.476;13.316;2023-05-16T14:46:46;11.47;;;1.63;;
6825;SDS011;3451;52.476;13.316;2023-05-16T14:49:13;7.20;;;1.70;;
6825;SDS011;3451;52.476;13.316;2023-05-16T14:51:39;5.00;;;1.53;;
6825;SDS011;3451;52.476;13.316;2023-05-16T14:54:06;8.53;;;1.77;;
6825;SDS011;3451;52.476;13.316;2023-05-16T14:56:32;3.13;;;1.27;;
6825;SDS011;3451;52.476;13.316;2023-05-16T14:58:58;6.77;;;1.60;;
6825;SDS011;3451;52.476;13.316;2023-05-16T15:01:25;4.80;;;1.43;;
6825;SDS011;3451;52.476;13.316;2023-05-16T15:03:52;5.23;;;1.30;;
6825;SDS011;3451;52.476;13.316;2023-05-16T15:06:21;5.10;;;1.40;;
6825;SDS011;3451;52.476;13.316;2023-05-16T15:08:48;8.73;;;1.60;;
6825;SDS011;3451;52.476;13.316;2023-05-16T15:11:14;7.83;;;1.97;;
6825;SDS011;3451;52.476;13.316;2023-05-16T15:13:40;11.83;;;1.43;;
6825;SDS011;3451;52.476;13.316;2023-05-16T15:16:07;11.90;;;1.87;;
6825;SDS011;3451;52.476;13.316;2023-05-16T15:18:33;9.43;;;1.83;;